sensor_id;sensor_type;location;lat;lon;timestamp;pressure;altitude;pressure_sealevel;temperature;humidity
40794;BME280;26502;51.886;15.604;2023-04-03T00:00:47;101855.94;;;1.05;63.30
40794;BME280;26502;51.886;15.604;2023-04-03T00:05:55;101855.96;;;0.99;63.47
40794;BME280;26502;51.886;15.604;2023-04-03T00:11:01;101858.73;;;0.85;63.46
40794;BME280;26502;51.886;15.604;2023-04-03T00:16:09;101860.97;;;0.83;63.59
40794;BME280;26502;51.886;15.604;2023-04-03T00:21:15;101861.81;;;0.82;63.77
40794;BME280;26502;51.886;15.604;2023-04-03T00:26:21;101864.45;;;0.83;63.81
40794;BME280;26502;51.886;15.604;2023-04-03T00:31:28;101866.92;;;0.77;63.90
40794;BME280;26502;51.886;15.604;2023-04-03T00:36:34;101858.73;;;0.72;63.89
40794;BME280;26502;51.886;15.604;2023-04-03T00:41:41;101861.88;;;0.65;63.94
40794;BME280;26502;51.886;15.604;2023-04-03T00:46:48;101868.57;;;0.60;64.05
40794;BME280;26502;51.886;15.604;2023-04-03T00:51:56;101870.88;;;0.56;64.20
40794;BME280;26502;51.886;15.604;2023-04-03T00:57:04;101867.36;;;0.48;64.18
40794;BME280;26502;51.886;15.604;2023-04-03T01:02:12;101872.23;;;0.41;64.18
40794;BME280;26502;51.886;15.604;2023-04-03T01:07:21;101873.96;;;0.34;64.39
40794;BME280;26502;51.886;15.604;2023-04-03T01:12:30;101881.01;;;0.36;64.59
40794;BME280;26502;51.886;15.604;2023-04-03T01:17:38;101885.39;;;0.31;64.49
40794;BME280;26502;51.886;15.604;2023-04-03T01:22:51;101885.95;;;0.26;64.54
40794;BME280;26502;51.886;15.604;2023-04-03T01:28:02;101877.14;;;0.23;64.72
40794;BME280;26502;51.886;15.604;2023-04-03T01:33:08;101883.63;;;0.18;64.62
40794;BME280;26502;51.886;15.604;2023-04-03T01:38:14;101880.61;;;0.10;64.84
40794;BME280;26502;51.886;15.604;2023-04-03T01:43:21;101885.59;;;0.08;64.88
40794;BME280;26502;51.886;15.604;2023-04-03T01:48:27;101892.32;;;0.06;65.00
40794;BME280;26502;51.886;15.604;2023-04-03T01:53:34;101896.08;;;0.02;65.11
40794;BME280;26502;51.886;15.604;2023-04-03T01:58:40;101895.16;;;0.00;65.13
40794;BME280;26502;51.886;15.604;2023-04-03T02:03:47;101898.62;;;-0.06;65.23
40794;BME280;26502;51.886;15.604;2023-04-03T02:08:54;101905.34;;;-0.09;65.40
40794;BME280;26502;51.886;15.604;2023-04-03T02:14:00;101907.54;;;-0.06;65.59
40794;BME280;26502;51.886;15.604;2023-04-03T02:19:06;101911.89;;;-0.12;65.54
40794;BME280;26502;51.886;15.604;2023-04-03T02:24:13;101911.78;;;-0.15;65.57
40794;BME280;26502;51.886;15.604;2023-04-03T02:29:19;101910.75;;;-0.21;65.57
40794;BME280;26502;51.886;15.604;2023-04-03T02:34:26;101916.89;;;-0.20;65.82
40794;BME280;26502;51.886;15.604;2023-04-03T02:39:35;101916.54;;;-0.25;65.96
40794;BME280;26502;51.886;15.604;2023-04-03T02:44:41;101921.70;;;-0.27;66.01
40794;BME280;26502;51.886;15.604;2023-04-03T02:49:48;101927.19;;;-0.31;66.03
40794;BME280;26502;51.886;15.604;2023-04-03T02:54:54;101930.18;;;-0.35;66.22
40794;BME280;26502;51.886;15.604;2023-04-03T03:00:00;101931.67;;;-0.38;66.28
40794;BME280;26502;51.886;15.604;2023-04-03T03:05:08;101934.05;;;-0.40;66.28
40794;BME280;26502;51.886;15.604;2023-04-03T03:10:15;101933.46;;;-0.42;66.45
40794;BME280;26502;51.886;15.604;2023-04-03T03:15:22;101933.81;;;-0.42;66.42
40794;BME280;26502;51.886;15.604;2023-04-03T03:20:28;101934.20;;;-0.51;66.38
40794;BME280;26502;51.886;15.604;2023-04-03T03:25:38;101938.43;;;-0.55;66.58
40794;BME280;26502;51.886;15.604;2023-04-03T03:30:46;101940.92;;;-0.59;66.62
40794;BME280;26502;51.886;15.604;2023-04-03T03:35:54;101943.89;;;-0.65;66.68
40794;BME280;26502;51.886;15.604;2023-04-03T03:41:02;101946.30;;;-0.71;66.81
40794;BME280;26502;51.886;15.604;2023-04-03T03:46:09;101950.20;;;-0.69;66.94
40794;BME280;26502;51.886;15.604;2023-04-03T03:51:15;101950.41;;;-0.78;66.90
40794;BME280;26502;51.886;15.604;2023-04-03T03:56:22;101952.50;;;-0.78;67.29
40794;BME280;26502;51.886;15.604;2023-04-03T04:01:29;101950.88;;;-0.79;67.06
40794;BME280;26502;51.886;15.604;2023-04-03T04:06:35;101955.64;;;-0.78;67.26
40794;BME280;26502;51.886;15.604;2023-04-03T04:11:43;101959.52;;;-0.87;67.28
40794;BME280;26502;51.886;15.604;2023-04-03T04:16:50;101961.54;;;-0.89;67.41
40794;BME280;26502;51.886;15.604;2023-04-03T04:22:00;101967.34;;;-0.88;67.46
40794;BME280;26502;51.886;15.604;2023-04-03T04:27:07;101978.13;;;-0.88;67.44
40794;BME280;26502;51.886;15.604;2023-04-03T04:32:14;101980.60;;;-0.92;67.41
40794;BME280;26502;51.886;15.604;2023-04-03T04:37:21;101981.42;;;-0.94;67.58
40794;BME280;26502;51.886;15.604;2023-04-03T04:42:27;101983.55;;;-0.92;67.60
40794;BME280;26502;51.886;15.604;2023-04-03T04:47:34;101987.48;;;-0.90;67.82
40794;BME280;26502;51.886;15.604;2023-04-03T04:52:40;101996.36;;;-0.86;67.75
40794;BME280;26502;51.886;15.604;2023-04-03T04:57:48;102003.65;;;-0.87;67.79
40794;BME280;26502;51.886;15.604;2023-04-03T05:02:55;102004.13;;;-0.88;67.69
40794;BME280;26502;51.886;15.604;2023-04-03T05:08:01;102005.22;;;-0.87;68.05
40794;BME280;26502;51.886;15.604;2023-04-03T05:13:08;102004.48;;;-0.87;67.91
40794;BME280;26502;51.886;15.604;2023-04-03T05:18:15;102009.45;;;-0.81;68.03
40794;BME280;26502;51.886;15.604;2023-04-03T05:23:22;102004.45;;;-0.74;68.09
40794;BME280;26502;51.886;15.604;2023-04-03T05:28:29;102008.57;;;-0.66;68.15
40794;BME280;26502;51.886;15.604;2023-04-03T05:33:35;102010.17;;;-0.65;68.08
40794;BME280;26502;51.886;15.604;2023-04-03T05:38:44;102010.86;;;-0.60;68.17
40794;BME280;26502;51.886;15.604;2023-04-03T05:43:50;102011.52;;;-0.51;68.08
40794;BME280;26502;51.886;15.604;2023-04-03T05:48:57;102015.25;;;-0.49;68.05
40794;BME280;26502;51.886;15.604;2023-04-03T05:54:12;102018.23;;;-0.44;68.12
40794;BME280;26502;51.886;15.604;2023-04-03T05:59:21;102021.27;;;-0.37;68.14
40794;BME280;26502;51.886;15.604;2023-04-03T06:04:29;102023.13;;;-0.27;68.15
40794;BME280;26502;51.886;15.604;2023-04-03T06:09:35;102028.55;;;-0.22;68.17
40794;BME280;26502;51.886;15.604;2023-04-03T06:14:44;102030.23;;;-0.08;68.15
40794;BME280;26502;51.886;15.604;2023-04-03T06:19:52;102029.38;;;0.09;68.10
40794;BME280;26502;51.886;15.604;2023-04-03T06:24:59;102031.73;;;0.33;68.18
40794;BME280;26502;51.886;15.604;2023-04-03T06:30:08;102038.81;;;0.59;67.97
40794;BME280;26502;51.886;15.604;2023-04-03T06:35:16;102044.44;;;0.78;67.87
40794;BME280;26502;51.886;15.604;2023-04-03T06:40:24;102051.05;;;0.95;67.73
40794;BME280;26502;51.886;15.604;2023-04-03T06:45:31;102056.69;;;1.14;67.72
40794;BME280;26502;51.886;15.604;2023-04-03T06:50:37;102061.23;;;1.33;67.63
40794;BME280;26502;51.886;15.604;2023-04-03T06:55:45;102062.92;;;1.50;67.52
40794;BME280;26502;51.886;15.604;2023-04-03T07:00:52;102069.66;;;1.73;67.42
40794;BME280;26502;51.886;15.604;2023-04-03T07:05:59;102068.45;;;1.87;67.12
40794;BME280;26502;51.886;15.604;2023-04-03T07:11:05;102072.52;;;2.03;67.29
40794;BME280;26502;51.886;15.604;2023-04-03T07:16:12;102082.86;;;2.17;66.95
40794;BME280;26502;51.886;15.604;2023-04-03T07:21:20;102087.11;;;2.26;66.94
40794;BME280;26502;51.886;15.604;2023-04-03T07:26:25;102089.32;;;2.53;66.93
40794;BME280;26502;51.886;15.604;2023-04-03T07:31:32;102092.61;;;2.74;66.65
40794;BME280;26502;51.886;15.604;2023-04-03T07:36:39;102090.33;;;2.82;66.41
40794;BME280;26502;51.886;15.604;2023-04-03T07:41:46;102092.45;;;2.99;66.23
40794;BME280;26502;51.886;15.604;2023-04-03T07:46:52;102093.02;;;3.01;65.92
40794;BME280;26502;51.886;15.604;2023-04-03T07:51:59;102094.66;;;3.03;65.88
40794;BME280;26502;51.886;15.604;2023-04-03T07:57:06;102099.88;;;3.26;65.49
40794;BME280;26502;51.886;15.604;2023-04-03T08:02:13;102099.02;;;3.19;65.35
40794;BME280;26502;51.886;15.604;2023-04-03T08:07:20;102100.43;;;3.45;65.27
40794;BME280;26502;51.886;15.604;2023-04-03T08:12:26;102104.16;;;3.47;64.64
40794;BME280;26502;51.886;15.604;2023-04-03T08:17:33;102106.98;;;3.39;64.67
40794;BME280;26502;51.886;15.604;2023-04-03T08:22:40;102102.26;;;3.40;64.59
40794;BME280;26502;51.886;15.604;2023-04-03T08:27:46;102098.01;;;3.38;64.35
40794;BME280;26502;51.886;15.604;2023-04-03T08:32:52;102093.13;;;3.58;64.31
40794;BME280;26502;51.886;15.604;2023-04-03T08:37:59;102095.02;;;3.75;63.93
40794;BME280;26502;51.886;15.604;2023-04-03T08:43:25;102086.27;;;4.18;64.00
40794;BME280;26502;51.886;15.604;2023-04-03T08:48:38;102099.17;;;4.23;63.08
40794;BME280;26502;51.886;15.604;2023-04-03T08:53:54;102102.39;;;3.94;62.58
40794;BME280;26502;51.886;15.604;2023-04-03T08:59:06;102101.41;;;3.79;62.69
40794;BME280;26502;51.886;15.604;2023-04-03T09:04:17;102105.36;;;3.65;62.27
40794;BME280;26502;51.886;15.604;2023-04-03T09:09:33;102107.11;;;3.54;62.37
40794;BME280;26502;51.886;15.604;2023-04-03T09:14:45;102107.00;;;3.58;62.28
40794;BME280;26502;51.886;15.604;2023-04-03T09:19:56;102106.30;;;3.68;61.93
40794;BME280;26502;51.886;15.604;2023-04-03T09:25:08;102106.98;;;3.57;61.62
40794;BME280;26502;51.886;15.604;2023-04-03T09:30:18;102110.53;;;3.50;61.18
40794;BME280;26502;51.886;15.604;2023-04-03T09:35:27;102108.17;;;3.55;60.94
40794;BME280;26502;51.886;15.604;2023-04-03T09:40:38;102112.29;;;3.59;60.32
40794;BME280;26502;51.886;15.604;2023-04-03T09:45:45;102113.35;;;3.60;60.09
40794;BME280;26502;51.886;15.604;2023-04-03T09:51:00;102110.73;;;3.69;59.97
40794;BME280;26502;51.886;15.604;2023-04-03T09:56:21;102106.42;;;3.83;59.67
40794;BME280;26502;51.886;15.604;2023-04-03T10:01:28;102104.39;;;3.99;59.61
40794;BME280;26502;51.886;15.604;2023-04-03T10:06:37;102097.21;;;4.10;58.92
40794;BME280;26502;51.886;15.604;2023-04-03T10:12:01;102098.09;;;3.99;58.71
40794;BME280;26502;51.886;15.604;2023-04-03T10:17:16;102085.19;;;4.28;58.83
40794;BME280;26502;51.886;15.604;2023-04-03T10:22:32;102084.12;;;4.49;58.44
40794;BME280;26502;51.886;15.604;2023-04-03T10:27:51;102092.12;;;4.21;57.97
40794;BME280;26502;51.886;15.604;2023-04-03T10:33:16;102085.92;;;4.06;57.98
40794;BME280;26502;51.886;15.604;2023-04-03T10:38:36;102087.08;;;4.03;57.88
40794;BME280;26502;51.886;15.604;2023-04-03T10:43:47;102083.31;;;4.20;57.53
40794;BME280;26502;51.886;15.604;2023-04-03T10:49:05;102079.94;;;4.29;57.15
40794;BME280;26502;51.886;15.604;2023-04-03T10:54:19;102077.58;;;4.35;57.35
40794;BME280;26502;51.886;15.604;2023-04-03T10:59:30;102071.52;;;4.31;56.85
40794;BME280;26502;51.886;15.604;2023-04-03T11:04:41;102066.15;;;4.37;56.72
40794;BME280;26502;51.886;15.604;2023-04-03T11:09:52;102065.23;;;4.95;57.10
40794;BME280;26502;51.886;15.604;2023-04-03T11:15:03;102061.43;;;5.02;56.17
40794;BME280;26502;51.886;15.604;2023-04-03T11:20:16;102068.51;;;4.77;56.00
40794;BME280;26502;51.886;15.604;2023-04-03T11:25:25;102060.63;;;4.81;55.97
40794;BME280;26502;51.886;15.604;2023-04-03T11:30:37;102053.21;;;5.06;55.79
40794;BME280;26502;51.886;15.604;2023-04-03T11:35:48;102053.70;;;5.16;55.87
40794;BME280;26502;51.886;15.604;2023-04-03T11:40:57;102042.74;;;5.62;55.74
40794;BME280;26502;51.886;15.604;2023-04-03T11:46:05;102042.90;;;5.80;55.26
40794;BME280;26502;51.886;15.604;2023-04-03T11:56:58;102049.07;;;5.43;54.97
40794;BME280;26502;51.886;15.604;2023-04-03T12:02:36;102038.21;;;5.68;54.87
40794;BME280;26502;51.886;15.604;2023-04-03T12:07:43;102035.95;;;6.07;54.56
40794;BME280;26502;51.886;15.604;2023-04-03T12:13:17;102032.52;;;6.20;53.91
40794;BME280;26502;51.886;15.604;2023-04-03T12:24:02;102015.95;;;7.40;53.82
40794;BME280;26502;51.886;15.604;2023-04-03T12:29:17;102016.88;;;7.75;53.21
40794;BME280;26502;51.886;15.604;2023-04-03T12:34:43;102026.48;;;7.17;52.93
40794;BME280;26502;51.886;15.604;2023-04-03T12:39:58;102023.28;;;6.68;52.16
40794;BME280;26502;51.886;15.604;2023-04-03T12:45:17;102017.83;;;7.17;52.20
40794;BME280;26502;51.886;15.604;2023-04-03T12:50:27;102002.90;;;7.76;51.76
40794;BME280;26502;51.886;15.604;2023-04-03T12:55:34;102004.13;;;8.19;51.32
40794;BME280;26502;51.886;15.604;2023-04-03T13:00:40;102015.45;;;8.08;50.97
40794;BME280;26502;51.886;15.604;2023-04-03T13:05:47;102015.23;;;7.32;50.40
40794;BME280;26502;51.886;15.604;2023-04-03T13:10:58;102013.02;;;7.08;50.44
40794;BME280;26502;51.886;15.604;2023-04-03T13:16:11;102004.30;;;7.76;50.66
40794;BME280;26502;51.886;15.604;2023-04-03T13:21:20;101996.65;;;8.52;50.22
40794;BME280;26502;51.886;15.604;2023-04-03T13:26:30;101996.02;;;7.93;49.14
40794;BME280;26502;51.886;15.604;2023-04-03T13:31:39;102005.34;;;7.39;49.82
40794;BME280;26502;51.886;15.604;2023-04-03T13:36:54;102001.20;;;7.05;49.99
40794;BME280;26502;51.886;15.604;2023-04-03T13:42:02;101995.55;;;7.07;50.28
40794;BME280;26502;51.886;15.604;2023-04-03T13:47:22;101990.35;;;7.51;50.13
40794;BME280;26502;51.886;15.604;2023-04-03T13:52:31;101981.11;;;7.26;49.70
40794;BME280;26502;51.886;15.604;2023-04-03T13:57:50;101978.30;;;7.80;49.92
40794;BME280;26502;51.886;15.604;2023-04-03T14:02:57;101970.25;;;8.98;49.60
40794;BME280;26502;51.886;15.604;2023-04-03T14:08:04;101969.55;;;8.98;49.22
40794;BME280;26502;51.886;15.604;2023-04-03T14:13:13;101971.34;;;8.95;48.91
40794;BME280;26502;51.886;15.604;2023-04-03T14:18:21;101968.42;;;9.10;48.38
40794;BME280;26502;51.886;15.604;2023-04-03T14:23:28;101974.05;;;8.86;48.12
40794;BME280;26502;51.886;15.604;2023-04-03T14:28:36;101963.90;;;9.26;47.78
40794;BME280;26502;51.886;15.604;2023-04-03T14:33:44;101961.06;;;9.73;47.60
40794;BME280;26502;51.886;15.604;2023-04-03T14:38:50;101964.65;;;8.81;46.43
40794;BME280;26502;51.886;15.604;2023-04-03T14:43:57;101971.60;;;8.02;46.85
40794;BME280;26502;51.886;15.604;2023-04-03T14:49:05;101969.85;;;7.67;46.98
40794;BME280;26502;51.886;15.604;2023-04-03T14:54:20;101962.23;;;7.50;47.00
40794;BME280;26502;51.886;15.604;2023-04-03T14:59:30;101956.74;;;7.45;47.14
40794;BME280;26502;51.886;15.604;2023-04-03T15:04:37;101953.86;;;8.25;47.41
40794;BME280;26502;51.886;15.604;2023-04-03T15:09:44;101950.95;;;8.98;46.61
40794;BME280;26502;51.886;15.604;2023-04-03T15:14:50;101947.58;;;8.57;46.27
40794;BME280;26502;51.886;15.604;2023-04-03T15:19:57;101951.25;;;8.03;46.49
40794;BME280;26502;51.886;15.604;2023-04-03T15:25:04;101949.85;;;7.76;46.63
40794;BME280;26502;51.886;15.604;2023-04-03T15:30:15;101946.15;;;7.57;46.80
40794;BME280;26502;51.886;15.604;2023-04-03T15:35:22;101953.55;;;7.35;46.80
40794;BME280;26502;51.886;15.604;2023-04-03T15:40:28;101944.03;;;7.73;46.83
40794;BME280;26502;51.886;15.604;2023-04-03T15:45:36;101939.79;;;7.59;46.43
40794;BME280;26502;51.886;15.604;2023-04-03T15:50:43;101940.84;;;7.37;46.39
40794;BME280;26502;51.886;15.604;2023-04-03T15:55:49;101939.19;;;7.06;46.42
40794;BME280;26502;51.886;15.604;2023-04-03T16:00:55;101944.05;;;6.75;46.34
40794;BME280;26502;51.886;15.604;2023-04-03T16:06:02;101940.27;;;6.56;46.57
40794;BME280;26502;51.886;15.604;2023-04-03T16:11:08;101944.45;;;6.46;46.61
40794;BME280;26502;51.886;15.604;2023-04-03T16:16:14;101946.90;;;6.41;46.61
40794;BME280;26502;51.886;15.604;2023-04-03T16:21:20;101947.47;;;6.49;46.74
40794;BME280;26502;51.886;15.604;2023-04-03T16:26:28;101943.73;;;6.43;46.49
40794;BME280;26502;51.886;15.604;2023-04-03T16:31:35;101948.28;;;6.37;46.64
40794;BME280;26502;51.886;15.604;2023-04-03T16:36:41;101948.98;;;6.35;46.78
40794;BME280;26502;51.886;15.604;2023-04-03T16:41:48;101952.70;;;6.36;46.96
40794;BME280;26502;51.886;15.604;2023-04-03T16:46:55;101952.52;;;6.37;47.23
40794;BME280;26502;51.886;15.604;2023-04-03T16:52:02;101950.90;;;6.29;47.17
40794;BME280;26502;51.886;15.604;2023-04-03T16:57:10;101946.19;;;6.10;47.39
40794;BME280;26502;51.886;15.604;2023-04-03T17:02:16;101951.13;;;5.89;47.46
40794;BME280;26502;51.886;15.604;2023-04-03T17:07:24;101951.30;;;5.89;47.72
40794;BME280;26502;51.886;15.604;2023-04-03T17:12:31;101956.39;;;5.85;47.65
40794;BME280;26502;51.886;15.604;2023-04-03T17:17:38;101959.94;;;5.88;48.03
40794;BME280;26502;51.886;15.604;2023-04-03T17:22:44;101961.52;;;5.87;48.07
40794;BME280;26502;51.886;15.604;2023-04-03T17:27:52;101964.89;;;5.90;48.23
40794;BME280;26502;51.886;15.604;2023-04-03T17:32:59;101968.84;;;5.76;48.33
40794;BME280;26502;51.886;15.604;2023-04-03T17:38:05;101968.76;;;5.66;48.36
40794;BME280;26502;51.886;15.604;2023-04-03T17:43:11;101973.77;;;5.55;48.44
40794;BME280;26502;51.886;15.604;2023-04-03T17:48:18;101975.06;;;5.42;48.90
40794;BME280;26502;51.886;15.604;2023-04-03T17:53:25;101973.19;;;5.49;49.14
40794;BME280;26502;51.886;15.604;2023-04-03T17:58:31;101978.33;;;5.53;49.49
40794;BME280;26502;51.886;15.604;2023-04-03T18:03:38;101974.17;;;5.61;49.76
40794;BME280;26502;51.886;15.604;2023-04-03T18:08:47;101975.84;;;5.49;49.56
40794;BME280;26502;51.886;15.604;2023-04-03T18:13:56;101974.58;;;5.29;49.99
40794;BME280;26502;51.886;15.604;2023-04-03T18:19:03;101979.64;;;5.26;50.16
40794;BME280;26502;51.886;15.604;2023-04-03T18:24:13;101986.06;;;5.16;50.20
40794;BME280;26502;51.886;15.604;2023-04-03T18:29:21;101987.79;;;5.12;50.58
40794;BME280;26502;51.886;15.604;2023-04-03T18:34:28;101988.55;;;5.02;50.78
40794;BME280;26502;51.886;15.604;2023-04-03T18:39:34;101992.55;;;4.97;51.02
40794;BME280;26502;51.886;15.604;2023-04-03T18:44:42;101994.02;;;4.89;51.29
40794;BME280;26502;51.886;15.604;2023-04-03T18:49:50;101993.82;;;4.86;51.47
40794;BME280;26502;51.886;15.604;2023-04-03T18:54:56;101992.86;;;4.79;51.49
40794;BME280;26502;51.886;15.604;2023-04-03T19:00:06;101993.67;;;4.74;51.91
40794;BME280;26502;51.886;15.604;2023-04-03T19:05:14;101995.28;;;4.62;51.87
40794;BME280;26502;51.886;15.604;2023-04-03T19:10:22;101994.73;;;4.47;51.80
40794;BME280;26502;51.886;15.604;2023-04-03T19:15:28;101995.41;;;4.33;52.14
40794;BME280;26502;51.886;15.604;2023-04-03T19:20:35;101993.91;;;4.27;52.42
40794;BME280;26502;51.886;15.604;2023-04-03T19:25:41;101991.98;;;4.15;52.65
40794;BME280;26502;51.886;15.604;2023-04-03T19:30:47;101997.73;;;4.12;52.79
40794;BME280;26502;51.886;15.604;2023-04-03T19:35:54;101995.02;;;4.07;53.05
40794;BME280;26502;51.886;15.604;2023-04-03T19:41:00;101994.84;;;4.06;53.29
40794;BME280;26502;51.886;15.604;2023-04-03T19:46:10;101996.92;;;4.04;53.56
40794;BME280;26502;51.886;15.604;2023-04-03T19:51:16;101997.14;;;3.96;53.68
40794;BME280;26502;51.886;15.604;2023-04-03T19:56:22;101993.63;;;3.97;53.83
40794;BME280;26502;51.886;15.604;2023-04-03T20:01:29;101995.69;;;3.94;53.83
40794;BME280;26502;51.886;15.604;2023-04-03T20:06:38;101990.77;;;3.92;54.00
40794;BME280;26502;51.886;15.604;2023-04-03T20:11:45;101988.67;;;3.84;54.14
40794;BME280;26502;51.886;15.604;2023-04-03T20:16:52;101984.95;;;3.82;54.34
40794;BME280;26502;51.886;15.604;2023-04-03T20:22:00;101985.41;;;3.78;54.26
40794;BME280;26502;51.886;15.604;2023-04-03T20:27:06;101989.06;;;3.75;54.34
40794;BME280;26502;51.886;15.604;2023-04-03T20:32:13;101989.88;;;3.71;54.17
40794;BME280;26502;51.886;15.604;2023-04-03T20:37:20;101987.31;;;3.65;54.39
40794;BME280;26502;51.886;15.604;2023-04-03T20:42:27;101988.52;;;3.64;54.82
40794;BME280;26502;51.886;15.604;2023-04-03T20:47:33;101983.23;;;3.62;54.80
40794;BME280;26502;51.886;15.604;2023-04-03T20:52:40;101983.79;;;3.54;54.80
40794;BME280;26502;51.886;15.604;2023-04-03T20:57:46;101980.19;;;3.49;55.15
40794;BME280;26502;51.886;15.604;2023-04-03T21:02:53;101978.23;;;3.48;55.35
40794;BME280;26502;51.886;15.604;2023-04-03T21:19:18;101990.09;;;3.42;55.85
40794;BME280;26502;51.886;15.604;2023-04-03T21:24:24;101987.65;;;3.34;55.68
40794;BME280;26502;51.886;15.604;2023-04-03T21:29:30;101993.61;;;3.25;55.03
40794;BME280;26502;51.886;15.604;2023-04-03T21:34:36;101997.20;;;3.29;54.91
40794;BME280;26502;51.886;15.604;2023-04-03T21:39:42;101998.59;;;3.28;55.15
40794;BME280;26502;51.886;15.604;2023-04-03T21:44:49;101998.12;;;3.31;55.24
40794;BME280;26502;51.886;15.604;2023-04-03T21:49:55;101998.83;;;3.31;54.96
40794;BME280;26502;51.886;15.604;2023-04-03T21:55:03;101998.64;;;3.30;54.95
40794;BME280;26502;51.886;15.604;2023-04-03T22:00:10;101995.77;;;3.27;54.98
40794;BME280;26502;51.886;15.604;2023-04-03T22:05:36;101994.90;;;3.18;54.94
40794;BME280;26502;51.886;15.604;2023-04-03T22:10:42;101994.06;;;3.11;54.98
40794;BME280;26502;51.886;15.604;2023-04-03T22:15:48;101989.39;;;3.06;55.04
40794;BME280;26502;51.886;15.604;2023-04-03T22:20:54;101990.06;;;3.04;55.07
40794;BME280;26502;51.886;15.604;2023-04-03T22:26:02;101987.59;;;3.03;55.12
40794;BME280;26502;51.886;15.604;2023-04-03T22:31:08;101989.83;;;3.01;55.27
40794;BME280;26502;51.886;15.604;2023-04-03T22:36:16;101992.67;;;3.03;55.26
40794;BME280;26502;51.886;15.604;2023-04-03T22:41:22;101993.05;;;3.04;55.24
40794;BME280;26502;51.886;15.604;2023-04-03T22:46:29;101997.58;;;3.03;55.39
40794;BME280;26502;51.886;15.604;2023-04-03T22:51:36;101993.39;;;3.04;55.55
40794;BME280;26502;51.886;15.604;2023-04-03T22:56:42;101992.70;;;3.05;55.73
40794;BME280;26502;51.886;15.604;2023-04-03T23:01:48;101990.90;;;3.02;55.79
40794;BME280;26502;51.886;15.604;2023-04-03T23:06:54;101995.10;;;2.92;55.84
40794;BME280;26502;51.886;15.604;2023-04-03T23:12:00;101989.16;;;2.85;55.92
40794;BME280;26502;51.886;15.604;2023-04-03T23:17:06;101997.10;;;2.70;55.67
40794;BME280;26502;51.886;15.604;2023-04-03T23:22:13;102002.34;;;2.61;55.54
40794;BME280;26502;51.886;15.604;2023-04-03T23:27:20;102000.48;;;2.48;55.36
40794;BME280;26502;51.886;15.604;2023-04-03T23:32:26;102001.60;;;2.43;55.59
40794;BME280;26502;51.886;15.604;2023-04-03T23:37:33;102003.83;;;2.41;55.42
40794;BME280;26502;51.886;15.604;2023-04-03T23:42:40;102005.40;;;2.40;55.54
40794;BME280;26502;51.886;15.604;2023-04-03T23:47:46;102002.89;;;2.37;55.42
40794;BME280;26502;51.886;15.604;2023-04-03T23:52:52;102008.33;;;2.38;55.44
40794;BME280;26502;51.886;15.604;2023-04-03T23:57:59;102011.79;;;2.36;55.46
